createdAt,value
2023-03-07T00:01:06.158Z,27.90
2023-03-07T00:03:33.314Z,24.97
2023-03-07T00:06:05.505Z,23.13
2023-03-07T00:08:33.107Z,25.13
2023-03-07T00:11:04.692Z,23.03
2023-03-07T00:13:32.191Z,25.37
2023-03-07T00:16:12.242Z,26.37
2023-03-07T00:18:38.765Z,27.23
2023-03-07T00:21:07.778Z,26.83
2023-03-07T00:23:36.280Z,25.47
2023-03-07T00:26:04.116Z,27.40
2023-03-07T00:28:31.179Z,27.33
2023-03-07T00:31:08.699Z,23.93
2023-03-07T00:33:35.593Z,26.27
2023-03-07T00:36:14.304Z,27.90
2023-03-07T00:38:42.181Z,26.87
2023-03-07T00:41:20.767Z,25.03
2023-03-07T00:43:48.058Z,27.47
2023-03-07T00:46:16.856Z,25.77
2023-03-07T00:48:44.040Z,25.17
2023-03-07T00:51:13.987Z,27.83
2023-03-07T00:53:40.970Z,25.53
2023-03-07T00:56:20.455Z,27.90
2023-03-07T00:58:47.702Z,25.53
2023-03-07T01:01:17.157Z,26.67
2023-03-07T01:03:44.028Z,26.87
2023-03-07T01:06:14.966Z,24.83
2023-03-07T01:08:42.096Z,26.27
2023-03-07T01:11:08.949Z,24.50
2023-03-07T01:13:36.596Z,24.23
2023-03-07T01:16:08.651Z,24.40
2023-03-07T01:18:35.397Z,25.80
2023-03-07T01:21:02.338Z,22.73
2023-03-07T01:23:28.900Z,24.27
2023-03-07T01:25:55.573Z,21.80
2023-03-07T01:28:21.975Z,21.30
2023-03-07T01:30:57.745Z,23.03
2023-03-07T01:33:24.408Z,21.43
2023-03-07T01:35:51.143Z,24.80
2023-03-07T01:38:17.620Z,21.13
2023-03-07T01:40:44.175Z,23.37
2023-03-07T01:43:32.564Z,24.27
2023-03-07T01:46:17.097Z,21.17
2023-03-07T01:48:52.058Z,17.60
2023-03-07T01:51:19.936Z,20.10
2023-03-07T01:53:50.677Z,19.00
2023-03-07T01:56:17.682Z,20.47
2023-03-07T01:58:44.931Z,23.43
2023-03-07T02:01:13.934Z,18.93
2023-03-07T02:03:51.240Z,18.87
2023-03-07T02:06:18.769Z,17.67
2023-03-07T02:08:48.743Z,18.03
2023-03-07T02:11:15.832Z,18.67
2023-03-07T02:13:42.645Z,18.73
2023-03-07T02:16:09.759Z,19.80
2023-03-07T02:18:43.517Z,19.00
2023-03-07T02:21:25.914Z,17.10
2023-03-07T02:24:13.746Z,18.50
2023-03-07T02:26:45.156Z,18.70
2023-03-07T02:29:12.249Z,17.83
2023-03-07T02:31:39.272Z,16.40
2023-03-07T02:34:26.904Z,16.47
2023-03-07T02:37:08.799Z,20.60
2023-03-07T02:39:35.942Z,21.50
2023-03-07T02:42:08.014Z,18.00
2023-03-07T02:44:45.682Z,18.53
2023-03-07T02:47:12.769Z,17.90
2023-03-07T02:49:39.278Z,20.33
2023-03-07T02:52:06.122Z,21.93
2023-03-07T02:54:32.610Z,23.43
2023-03-07T02:56:59.113Z,22.10
2023-03-07T02:59:25.625Z,22.53
2023-03-07T03:01:52.154Z,23.90
2023-03-07T03:04:19.050Z,22.87
2023-03-07T03:06:45.614Z,22.63
2023-03-07T03:09:12.024Z,23.20
2023-03-07T03:11:38.442Z,22.63
2023-03-07T03:14:04.942Z,25.90
2023-03-07T03:16:31.687Z,24.27
2023-03-07T03:19:00.059Z,23.77
2023-03-07T03:21:26.534Z,23.17
2023-03-07T03:23:53.080Z,24.03
2023-03-07T03:26:19.568Z,24.67
2023-03-07T03:28:46.136Z,22.97
2023-03-07T03:31:16.278Z,23.73
2023-03-07T03:33:46.306Z,21.57
2023-03-07T03:36:16.113Z,23.20
2023-03-07T03:38:44.878Z,23.77
2023-03-07T03:41:13.525Z,23.17
2023-03-07T03:43:40.296Z,22.53
2023-03-07T03:46:07.164Z,25.73
2023-03-07T03:48:33.619Z,25.83
2023-03-07T03:51:12.099Z,20.93
2023-03-07T03:53:39.735Z,22.30
2023-03-07T03:56:12.459Z,25.20
2023-03-07T03:58:39.283Z,25.53
2023-03-07T04:01:07.770Z,25.67
2023-03-07T04:03:40.025Z,25.77
2023-03-07T04:06:09.313Z,21.90
2023-03-07T04:08:37.674Z,22.53
2023-03-07T04:11:04.952Z,21.57
2023-03-07T04:13:33.448Z,22.10
2023-03-07T04:16:00.480Z,22.87
2023-03-07T04:18:26.977Z,22.13
2023-03-07T04:20:53.865Z,19.77
2023-03-07T04:23:22.411Z,20.13
2023-03-07T04:25:57.720Z,20.20
2023-03-07T04:28:27.407Z,20.07
2023-03-07T04:30:56.182Z,20.63
2023-03-07T04:33:23.285Z,23.67
2023-03-07T04:35:50.056Z,21.23
2023-03-07T04:38:16.591Z,23.10
2023-03-07T04:40:43.185Z,20.10
2023-03-07T04:43:10.854Z,19.77
2023-03-07T04:45:38.625Z,20.53
2023-03-07T04:48:05.549Z,20.27
2023-03-07T04:50:33.355Z,21.77
2023-03-07T04:53:00.563Z,20.10
2023-03-07T04:55:27.203Z,22.13
2023-03-07T04:57:53.859Z,19.60
2023-03-07T05:00:20.523Z,21.53
2023-03-07T05:02:48.749Z,20.13
2023-03-07T05:05:17.275Z,21.30
2023-03-07T05:07:44.212Z,19.93
2023-03-07T05:10:12.077Z,20.33
2023-03-07T05:12:38.958Z,18.13
2023-03-07T05:15:07.191Z,20.53
2023-03-07T05:17:33.620Z,19.20
2023-03-07T05:20:00.167Z,22.90
2023-03-07T05:22:27.154Z,19.57
2023-03-07T05:24:53.632Z,20.43
2023-03-07T05:27:20.382Z,20.37
2023-03-07T05:29:46.882Z,19.83
2023-03-07T05:32:14.051Z,20.43
2023-03-07T05:34:40.635Z,20.50
2023-03-07T05:37:07.720Z,22.47
2023-03-07T05:39:34.170Z,18.57
2023-03-07T05:42:00.622Z,18.30
2023-03-07T05:44:28.394Z,18.90
2023-03-07T05:46:56.313Z,21.73
2023-03-07T05:49:24.866Z,26.13
2023-03-07T05:51:51.718Z,23.27
2023-03-07T05:54:20.033Z,19.47
2023-03-07T05:56:46.527Z,23.40
2023-03-07T05:59:15.488Z,18.00
2023-03-07T06:01:43.409Z,17.53
2023-03-07T06:04:10.129Z,18.23
2023-03-07T06:06:36.738Z,17.97
2023-03-07T06:09:04.476Z,18.27
2023-03-07T06:11:34.450Z,18.03
2023-03-07T06:14:01.080Z,17.23
2023-03-07T06:16:28.715Z,18.17
2023-03-07T06:18:55.946Z,16.80
2023-03-07T06:21:23.157Z,16.87
2023-03-07T06:23:49.641Z,16.70
2023-03-07T06:26:19.412Z,16.20
2023-03-07T06:28:50.237Z,17.23
2023-03-07T06:31:19.000Z,18.60
2023-03-07T06:33:47.529Z,18.10
2023-03-07T06:36:16.911Z,16.17
2023-03-07T06:38:47.427Z,16.87
2023-03-07T06:41:14.040Z,15.67
2023-03-07T06:43:40.772Z,16.60
2023-03-07T06:46:07.653Z,14.67
2023-03-07T06:48:38.311Z,16.53
2023-03-07T06:51:09.007Z,13.83
2023-03-07T06:53:37.662Z,15.07
2023-03-07T06:56:04.625Z,14.67
2023-03-07T06:58:32.748Z,15.10
2023-03-07T07:00:59.377Z,13.60
2023-03-07T07:03:26.062Z,15.20
2023-03-07T07:05:52.464Z,13.37
2023-03-07T07:08:19.351Z,12.93
2023-03-07T07:10:46.270Z,12.23
2023-03-07T07:13:12.920Z,13.97
2023-03-07T07:15:39.960Z,12.80
2023-03-07T07:18:06.532Z,15.30
2023-03-07T07:20:34.419Z,11.70
2023-03-07T07:23:02.359Z,13.80
2023-03-07T07:25:28.762Z,14.27
2023-03-07T07:27:55.469Z,12.73
2023-03-07T07:30:21.983Z,12.77
2023-03-07T07:32:48.739Z,11.93
2023-03-07T07:35:15.273Z,14.13
2023-03-07T07:37:41.972Z,14.13
2023-03-07T07:40:10.586Z,13.30
2023-03-07T07:42:37.847Z,13.87
2023-03-07T07:45:15.487Z,15.53
2023-03-07T07:47:42.483Z,11.80
2023-03-07T07:50:09.692Z,12.80
2023-03-07T07:52:36.204Z,15.43
2023-03-07T07:55:02.791Z,14.10
2023-03-07T07:57:29.244Z,11.90
2023-03-07T07:59:57.497Z,11.73
2023-03-07T08:02:24.339Z,12.83
2023-03-07T08:04:50.828Z,12.93
2023-03-07T08:07:17.728Z,12.93
2023-03-07T08:09:44.124Z,12.90
2023-03-07T08:12:12.532Z,11.83
2023-03-07T08:14:40.100Z,13.33
2023-03-07T08:17:06.690Z,12.77
2023-03-07T08:19:33.250Z,12.33
2023-03-07T08:22:00.417Z,12.63
2023-03-07T08:24:39.916Z,13.40
2023-03-07T08:27:07.248Z,12.83
2023-03-07T08:29:35.178Z,13.77
2023-03-07T08:32:01.819Z,12.30
2023-03-07T08:34:28.400Z,12.10
2023-03-07T08:36:54.777Z,11.27
2023-03-07T08:39:21.165Z,14.30
2023-03-07T08:41:47.635Z,12.03
2023-03-07T08:44:14.009Z,11.50
2023-03-07T08:46:40.509Z,10.37
2023-03-07T08:49:07.124Z,19.30
2023-03-07T08:51:34.892Z,11.50
2023-03-07T08:54:01.305Z,14.50
2023-03-07T08:56:27.876Z,12.37
2023-03-07T08:58:54.733Z,12.07
2023-03-07T09:01:21.445Z,10.60
2023-03-07T09:03:47.967Z,13.20
2023-03-07T09:06:19.997Z,12.53
2023-03-07T09:08:47.396Z,11.73
2023-03-07T09:11:15.511Z,12.10
2023-03-07T09:13:51.560Z,13.77
2023-03-07T09:16:19.401Z,12.50
2023-03-07T09:18:45.869Z,10.37
2023-03-07T09:21:12.265Z,11.77
2023-03-07T09:23:38.793Z,11.87
2023-03-07T09:26:05.964Z,14.70
2023-03-07T09:28:32.415Z,11.87
2023-03-07T09:30:58.935Z,11.47
2023-03-07T09:33:25.446Z,10.93
2023-03-07T09:35:51.918Z,12.37
2023-03-07T09:38:18.459Z,12.73
2023-03-07T09:40:48.354Z,10.43
2023-03-07T09:43:25.980Z,9.30
2023-03-07T09:46:42.348Z,10.00
2023-03-07T09:49:19.557Z,11.93
2023-03-07T09:51:50.585Z,9.63
2023-03-07T09:54:23.507Z,9.03
2023-03-07T09:56:55.657Z,11.27
2023-03-07T09:59:48.969Z,10.27
2023-03-07T10:02:27.634Z,9.80
2023-03-07T10:05:18.528Z,8.43
2023-03-07T10:07:45.008Z,9.60
2023-03-07T10:10:17.489Z,10.87
2023-03-07T10:13:10.349Z,10.20
2023-03-07T10:15:55.675Z,12.57
2023-03-07T10:18:41.122Z,10.17
2023-03-07T10:21:19.394Z,12.00
2023-03-07T10:24:11.353Z,11.00
2023-03-07T10:26:45.539Z,12.00
2023-03-07T10:29:19.139Z,10.67
2023-03-07T10:31:49.063Z,12.83
2023-03-07T10:34:29.227Z,12.03
2023-03-07T10:37:08.689Z,10.60
2023-03-07T10:39:51.819Z,14.03
2023-03-07T10:42:22.736Z,12.13
2023-03-07T10:44:51.208Z,11.50
2023-03-07T10:47:19.317Z,10.83
2023-03-07T10:49:47.232Z,11.93
2023-03-07T10:52:31.950Z,12.97
2023-03-07T10:55:33.410Z,11.17
2023-03-07T10:58:32.330Z,9.93
2023-03-07T11:01:02.310Z,13.70
2023-03-07T11:03:53.529Z,13.10
2023-03-07T11:06:40.923Z,10.50
2023-03-07T11:09:11.145Z,11.43
2023-03-07T11:11:38.144Z,12.70
2023-03-07T11:14:06.257Z,11.87
2023-03-07T11:16:33.044Z,11.53
2023-03-07T11:18:59.610Z,10.87
2023-03-07T11:21:34.352Z,10.23
2023-03-07T11:24:06.782Z,12.90
2023-03-07T11:26:39.570Z,11.63
2023-03-07T11:29:14.174Z,14.43
2023-03-07T11:32:01.963Z,13.60
2023-03-07T11:34:53.237Z,13.20
2023-03-07T11:37:32.002Z,12.97
2023-03-07T11:40:26.005Z,13.20
2023-03-07T11:43:11.134Z,13.57
2023-03-07T11:45:51.174Z,12.60
2023-03-07T11:48:22.132Z,12.60
2023-03-07T11:50:54.181Z,12.33
2023-03-07T11:53:37.842Z,13.40
2023-03-07T11:56:19.935Z,12.80
2023-03-07T11:59:22.114Z,13.13
2023-03-07T12:01:56.819Z,11.50
2023-03-07T12:04:48.268Z,14.33
2023-03-07T12:07:46.798Z,13.70
2023-03-07T12:10:28.319Z,12.73
2023-03-07T12:13:19.160Z,16.10
2023-03-07T12:16:01.618Z,10.77
2023-03-07T12:18:46.896Z,13.00
2023-03-07T12:21:40.899Z,12.80
2023-03-07T12:24:18.784Z,13.33
2023-03-07T12:26:57.558Z,13.80
2023-03-07T12:29:33.138Z,13.67
2023-03-07T12:32:22.873Z,13.33
2023-03-07T12:35:16.287Z,12.30
2023-03-07T12:37:46.269Z,13.77
2023-03-07T12:40:26.933Z,13.90
2023-03-07T12:43:02.316Z,11.03
2023-03-07T12:45:39.447Z,12.83
2023-03-07T12:48:40.887Z,11.27
2023-03-07T12:51:18.132Z,14.50
2023-03-07T12:53:56.518Z,11.13
2023-03-07T12:56:27.152Z,11.57
2023-03-07T12:59:12.676Z,12.67
2023-03-07T13:01:54.040Z,12.23
2023-03-07T13:04:22.935Z,13.17
2023-03-07T13:06:50.196Z,13.07
2023-03-07T13:09:25.060Z,20.57
2023-03-07T13:12:16.484Z,12.10
2023-03-07T13:14:45.154Z,13.20
2023-03-07T13:17:35.557Z,10.93
2023-03-07T13:20:04.927Z,13.63
2023-03-07T13:22:31.398Z,14.03
2023-03-07T13:25:20.244Z,13.60
2023-03-07T13:27:51.401Z,13.40
2023-03-07T13:30:21.496Z,13.70
2023-03-07T13:32:50.784Z,13.43
2023-03-07T13:35:32.656Z,10.73
2023-03-07T13:38:13.242Z,11.13
2023-03-07T13:40:48.769Z,12.40
2023-03-07T13:43:27.306Z,11.90
2023-03-07T13:46:00.884Z,13.97
2023-03-07T13:48:30.411Z,11.07
2023-03-07T13:50:56.781Z,10.43
2023-03-07T13:53:34.383Z,17.60
2023-03-07T13:56:16.827Z,11.17
2023-03-07T13:59:00.700Z,10.43
2023-03-07T14:01:42.066Z,11.60
2023-03-07T14:04:39.917Z,10.53
2023-03-07T14:07:28.019Z,11.77
2023-03-07T14:10:23.027Z,10.33
2023-03-07T14:13:26.835Z,11.83
2023-03-07T14:16:34.064Z,10.67
2023-03-07T14:19:15.386Z,12.07
2023-03-07T14:21:54.775Z,11.57
2023-03-07T14:24:47.963Z,11.70
2023-03-07T14:27:16.370Z,9.47
2023-03-07T14:29:54.539Z,10.70
2023-03-07T14:32:24.638Z,11.63
2023-03-07T14:34:53.218Z,10.80
2023-03-07T14:37:26.425Z,13.37
2023-03-07T14:40:14.553Z,10.53
2023-03-07T14:43:11.018Z,9.93
2023-03-07T14:45:53.401Z,11.03
2023-03-07T14:48:38.344Z,12.70
2023-03-07T14:51:16.225Z,14.80
2023-03-07T14:53:43.849Z,12.40
2023-03-07T14:56:11.334Z,15.83
2023-03-07T14:58:52.512Z,12.93
2023-03-07T15:01:19.657Z,12.83
2023-03-07T15:03:54.073Z,12.30
2023-03-07T15:06:24.001Z,13.70
2023-03-07T15:08:52.164Z,12.80
2023-03-07T15:11:34.728Z,13.63
2023-03-07T15:14:22.105Z,12.90
2023-03-07T15:16:51.234Z,13.80
2023-03-07T15:19:32.776Z,14.97
2023-03-07T15:22:02.482Z,11.80
2023-03-07T15:24:42.818Z,10.70
2023-03-07T15:27:13.725Z,15.70
2023-03-07T15:29:45.934Z,11.63
2023-03-07T15:32:29.543Z,12.90
2023-03-07T15:35:09.413Z,13.10
2023-03-07T15:37:51.216Z,12.47
2023-03-07T15:40:20.341Z,12.10
2023-03-07T15:42:53.057Z,12.03
2023-03-07T15:45:36.697Z,13.07
2023-03-07T15:48:14.503Z,14.70
2023-03-07T15:50:41.019Z,13.20
2023-03-07T15:53:10.115Z,12.37
2023-03-07T15:55:38.842Z,12.87
2023-03-07T15:58:13.114Z,14.53
2023-03-07T16:00:41.719Z,12.37
2023-03-07T16:03:17.066Z,12.57
2023-03-07T16:05:43.942Z,13.97
2023-03-07T16:08:16.493Z,12.53
2023-03-07T16:11:11.629Z,13.67
2023-03-07T16:13:43.666Z,12.77
2023-03-07T16:16:13.136Z,12.67
2023-03-07T16:18:40.840Z,13.00
2023-03-07T16:21:13.832Z,14.63
2023-03-07T16:23:40.649Z,14.00
2023-03-07T16:26:07.749Z,14.17
2023-03-07T16:28:35.701Z,14.90
2023-03-07T16:31:02.325Z,13.60
2023-03-07T16:33:28.766Z,13.27
2023-03-07T16:35:55.257Z,13.97
2023-03-07T16:38:21.664Z,12.07
2023-03-07T16:40:48.169Z,13.33
2023-03-07T16:43:37.647Z,13.17
2023-03-07T16:46:06.901Z,12.97
2023-03-07T16:48:33.581Z,12.60
2023-03-07T16:51:00.029Z,12.63
2023-03-07T16:53:26.630Z,13.13
2023-03-07T16:55:54.918Z,11.20
2023-03-07T16:58:29.515Z,11.27
2023-03-07T17:00:56.306Z,13.37
2023-03-07T17:03:22.848Z,12.37
2023-03-07T17:05:49.331Z,11.47
2023-03-07T17:08:15.774Z,12.53
2023-03-07T17:10:44.582Z,11.87
2023-03-07T17:13:17.429Z,10.77
2023-03-07T17:15:45.405Z,10.63
2023-03-07T17:18:12.227Z,11.30
2023-03-07T17:20:39.190Z,14.17
2023-03-07T17:23:05.641Z,14.90
2023-03-07T17:25:33.370Z,12.83
2023-03-07T17:28:03.393Z,11.10
2023-03-07T17:30:32.231Z,10.57
2023-03-07T17:32:59.210Z,9.77
2023-03-07T17:35:25.997Z,10.63
2023-03-07T17:37:55.701Z,10.77
2023-03-07T17:40:22.511Z,11.87
2023-03-07T17:42:54.627Z,10.43
2023-03-07T17:45:21.411Z,11.77
2023-03-07T17:47:53.895Z,11.30
2023-03-07T17:50:23.829Z,9.93
2023-03-07T17:52:52.212Z,9.23
2023-03-07T17:55:19.303Z,10.53
2023-03-07T17:57:45.826Z,11.33
2023-03-07T18:00:15.828Z,11.73
2023-03-07T18:02:45.182Z,12.00
2023-03-07T18:05:13.135Z,11.03
2023-03-07T18:07:41.304Z,11.93
2023-03-07T18:10:09.044Z,11.00
2023-03-07T18:12:38.939Z,10.70
2023-03-07T18:15:08.187Z,9.77
2023-03-07T18:17:47.023Z,11.33
2023-03-07T18:20:15.631Z,9.70
2023-03-07T18:22:42.769Z,11.27
2023-03-07T18:25:13.194Z,10.43
2023-03-07T18:27:39.894Z,9.80
2023-03-07T18:30:06.861Z,10.90
2023-03-07T18:32:34.172Z,9.53
2023-03-07T18:35:00.735Z,10.70
2023-03-07T18:37:27.953Z,10.20
2023-03-07T18:39:54.385Z,9.00
2023-03-07T18:42:20.873Z,12.50
2023-03-07T18:44:47.260Z,12.37
2023-03-07T18:47:13.649Z,12.73
2023-03-07T18:49:40.258Z,12.87
2023-03-07T18:52:06.693Z,10.73
2023-03-07T18:54:34.237Z,12.83
2023-03-07T18:57:00.792Z,13.63
2023-03-07T18:59:27.202Z,13.57
2023-03-07T19:01:53.672Z,18.87
2023-03-07T19:04:20.411Z,14.63
2023-03-07T19:06:48.046Z,13.00
2023-03-07T19:09:16.715Z,12.60
2023-03-07T19:11:43.439Z,14.50
2023-03-07T19:14:10.329Z,13.40
2023-03-07T19:16:36.767Z,12.73
2023-03-07T19:19:03.752Z,14.80
2023-03-07T19:21:31.339Z,15.63
2023-03-07T19:23:59.821Z,15.17
2023-03-07T19:26:26.451Z,12.87
2023-03-07T19:28:54.783Z,15.93
2023-03-07T19:31:24.099Z,11.87
2023-03-07T19:33:51.697Z,13.40
2023-03-07T19:36:27.638Z,11.77
2023-03-07T19:38:56.348Z,13.33
2023-03-07T19:41:24.693Z,12.67
2023-03-07T19:43:51.642Z,15.27
2023-03-07T19:46:19.825Z,12.83
2023-03-07T19:48:46.447Z,12.10
2023-03-07T19:51:16.074Z,11.77
2023-03-07T19:53:44.142Z,15.83
2023-03-07T19:56:17.836Z,12.47
2023-03-07T19:58:44.581Z,12.67
2023-03-07T20:01:14.082Z,14.10
2023-03-07T20:03:40.566Z,12.33
2023-03-07T20:06:08.899Z,12.90
2023-03-07T20:08:35.472Z,12.33
2023-03-07T20:11:10.077Z,11.33
2023-03-07T20:13:36.699Z,12.67
2023-03-07T20:16:03.406Z,11.10
2023-03-07T20:18:29.841Z,12.93
2023-03-07T20:20:56.288Z,12.23
2023-03-07T20:23:22.736Z,14.10
2023-03-07T20:25:49.208Z,11.70
2023-03-07T20:28:15.618Z,11.97
2023-03-07T20:30:42.117Z,11.60
2023-03-07T20:33:08.676Z,11.93
2023-03-07T20:35:35.355Z,12.40
2023-03-07T20:38:01.766Z,11.17
2023-03-07T20:40:28.178Z,12.90
2023-03-07T20:42:54.640Z,13.33
2023-03-07T20:45:21.109Z,11.33
2023-03-07T20:47:47.558Z,13.53
2023-03-07T20:50:13.989Z,11.77
2023-03-07T20:52:40.392Z,11.97
2023-03-07T20:55:07.235Z,12.80
2023-03-07T20:57:33.685Z,12.17
2023-03-07T21:00:00.261Z,14.20
2023-03-07T21:02:26.728Z,13.10
2023-03-07T21:04:53.215Z,13.40
2023-03-07T21:07:19.617Z,10.97
2023-03-07T21:09:50.819Z,14.77
2023-03-07T21:12:17.753Z,11.97
2023-03-07T21:14:44.162Z,11.93
2023-03-07T21:17:12.655Z,13.53
2023-03-07T21:19:39.224Z,11.70
2023-03-07T21:22:05.956Z,11.93
2023-03-07T21:24:32.401Z,12.83
2023-03-07T21:26:59.135Z,13.90
2023-03-07T21:29:25.596Z,13.97
2023-03-07T21:31:52.277Z,14.07
2023-03-07T21:34:18.765Z,13.17
2023-03-07T21:36:46.077Z,13.90
2023-03-07T21:39:12.564Z,12.37
2023-03-07T21:41:39.436Z,12.80
2023-03-07T21:44:06.170Z,14.43
2023-03-07T21:46:32.799Z,16.33
2023-03-07T21:48:59.446Z,13.13
2023-03-07T21:51:25.895Z,13.40
2023-03-07T21:53:52.436Z,14.47
2023-03-07T21:56:18.916Z,13.17
2023-03-07T21:58:49.995Z,12.63
2023-03-07T22:01:20.391Z,14.43
2023-03-07T22:03:47.279Z,12.37
2023-03-07T22:06:15.626Z,12.37
2023-03-07T22:08:42.590Z,11.43
2023-03-07T22:11:11.011Z,12.33
2023-03-07T22:13:39.489Z,12.37
2023-03-07T22:16:09.786Z,11.87
2023-03-07T22:18:36.659Z,15.47
2023-03-07T22:21:11.537Z,13.40
2023-03-07T22:23:38.012Z,13.57
2023-03-07T22:26:06.931Z,14.93
2023-03-07T22:28:33.706Z,12.03
2023-03-07T22:31:11.076Z,12.70
2023-03-07T22:33:37.692Z,12.90
2023-03-07T22:36:06.270Z,12.30
2023-03-07T22:38:32.836Z,13.27
2023-03-07T22:41:04.464Z,12.20
2023-03-07T22:43:32.303Z,12.80
2023-03-07T22:45:59.189Z,11.43
2023-03-07T22:48:26.093Z,15.10
2023-03-07T22:50:52.664Z,14.53
2023-03-07T22:53:19.229Z,13.47
2023-03-07T22:55:45.982Z,12.07
2023-03-07T22:58:13.400Z,12.70
2023-03-07T23:00:41.656Z,13.80
2023-03-07T23:03:08.379Z,12.73
2023-03-07T23:05:35.618Z,13.57
2023-03-07T23:08:03.483Z,13.27
2023-03-07T23:10:30.344Z,14.13
2023-03-07T23:12:56.801Z,12.57
2023-03-07T23:15:24.481Z,12.60
2023-03-07T23:17:51.705Z,14.40
2023-03-07T23:20:25.331Z,13.77
2023-03-07T23:22:52.575Z,11.80
2023-03-07T23:25:19.140Z,11.00
2023-03-07T23:27:45.550Z,12.73
2023-03-07T23:30:12.410Z,12.67
2023-03-07T23:32:38.860Z,15.23
2023-03-07T23:35:05.729Z,12.20
2023-03-07T23:37:32.246Z,13.53
2023-03-07T23:40:00.625Z,12.47
2023-03-07T23:42:27.119Z,12.27
2023-03-07T23:44:53.614Z,13.77
2023-03-07T23:47:20.038Z,14.20
2023-03-07T23:49:46.406Z,13.33
2023-03-07T23:52:12.894Z,12.13
2023-03-07T23:54:41.861Z,11.73
2023-03-07T23:57:08.292Z,11.57
2023-03-07T23:59:34.823Z,11.80
